createdAt,value
2023-04-13T00:00:48.079Z,15.33
2023-04-13T00:03:22.139Z,16.70
2023-04-13T00:05:53.784Z,15.13
2023-04-13T00:08:23.552Z,14.80
2023-04-13T00:10:53.544Z,14.97
2023-04-13T00:13:22.024Z,15.47
2023-04-13T00:15:50.331Z,16.10
2023-04-13T00:18:18.876Z,14.17
2023-04-13T00:20:47.214Z,16.37
2023-04-13T00:23:17.964Z,14.43
2023-04-13T00:25:46.286Z,16.13
2023-04-13T00:28:16.579Z,16.77
2023-04-13T00:30:45.030Z,15.20
2023-04-13T00:33:13.625Z,14.70
2023-04-13T00:35:42.078Z,15.77
2023-04-13T00:38:11.589Z,15.33
2023-04-13T00:40:41.156Z,14.93
2023-04-13T00:43:10.019Z,13.37
2023-04-13T00:45:39.157Z,14.03
2023-04-13T00:48:10.666Z,15.87
2023-04-13T00:50:39.637Z,18.17
2023-04-13T00:53:10.952Z,14.50
2023-04-13T00:55:42.612Z,14.27
2023-04-13T00:58:13.261Z,16.63
2023-04-13T01:00:43.179Z,15.60
2023-04-13T01:03:12.734Z,14.30
2023-04-13T01:05:50.493Z,13.83
2023-04-13T01:08:25.948Z,14.93
2023-04-13T01:11:01.519Z,15.37
2023-04-13T01:13:35.928Z,14.23
2023-04-13T01:16:19.169Z,14.63
2023-04-13T01:18:53.482Z,13.70
2023-04-13T01:21:27.622Z,15.60
2023-04-13T01:24:09.834Z,15.10
2023-04-13T01:26:54.296Z,15.10
2023-04-13T01:29:26.260Z,14.33
2023-04-13T01:31:56.002Z,15.23
2023-04-13T01:34:25.976Z,15.70
2023-04-13T01:36:55.567Z,15.30
2023-04-13T01:39:31.936Z,15.43
2023-04-13T01:42:06.798Z,13.97
2023-04-13T01:44:37.280Z,15.27
2023-04-13T01:47:16.416Z,14.60
2023-04-13T01:50:14.763Z,14.70
2023-04-13T01:52:54.411Z,14.17
2023-04-13T01:55:24.400Z,14.30
2023-04-13T01:57:59.180Z,13.50
2023-04-13T02:00:35.915Z,13.37
2023-04-13T02:03:08.715Z,13.57
2023-04-13T02:05:40.276Z,12.43
2023-04-13T02:08:09.594Z,12.97
2023-04-13T02:10:43.300Z,13.20
2023-04-13T02:13:11.968Z,13.37
2023-04-13T02:15:43.029Z,13.57
2023-04-13T02:18:11.641Z,12.77
2023-04-13T02:20:44.597Z,14.10
2023-04-13T02:23:14.924Z,13.73
2023-04-13T02:25:48.016Z,13.13
2023-04-13T02:28:17.891Z,11.90
2023-04-13T02:30:49.943Z,14.13
2023-04-13T02:33:19.180Z,14.13
2023-04-13T02:35:48.821Z,13.80
2023-04-13T02:38:18.175Z,13.73
2023-04-13T02:40:55.665Z,13.17
2023-04-13T02:43:24.155Z,13.07
2023-04-13T02:45:54.855Z,12.93
2023-04-13T02:48:25.668Z,13.83
2023-04-13T02:50:55.964Z,14.93
2023-04-13T02:53:28.178Z,13.30
2023-04-13T02:56:02.288Z,13.53
2023-04-13T02:58:31.651Z,13.47
2023-04-13T03:01:05.375Z,13.00
2023-04-13T03:03:34.407Z,16.47
2023-04-13T03:06:03.394Z,15.80
2023-04-13T03:08:43.853Z,15.30
2023-04-13T03:11:20.509Z,16.63
2023-04-13T03:13:54.871Z,13.40
2023-04-13T03:16:24.899Z,14.90
2023-04-13T03:18:54.584Z,16.60
2023-04-13T03:21:23.597Z,13.83
2023-04-13T03:24:02.071Z,15.70
2023-04-13T03:26:31.162Z,14.67
2023-04-13T03:29:02.811Z,14.70
2023-04-13T03:31:35.186Z,15.77
2023-04-13T03:34:03.627Z,15.67
2023-04-13T03:36:32.262Z,15.23
2023-04-13T03:39:01.943Z,14.97
2023-04-13T03:41:35.820Z,13.97
2023-04-13T03:44:06.049Z,14.87
2023-04-13T03:46:37.810Z,12.37
2023-04-13T03:49:16.805Z,12.73
2023-04-13T03:51:45.425Z,13.67
2023-04-13T03:54:15.279Z,13.27
2023-04-13T03:56:44.236Z,13.60
2023-04-13T03:59:12.551Z,13.90
2023-04-13T04:01:42.523Z,16.07
2023-04-13T04:04:11.296Z,14.30
2023-04-13T04:06:40.456Z,12.87
2023-04-13T04:09:13.958Z,13.17
2023-04-13T04:11:46.426Z,14.47
2023-04-13T04:14:19.233Z,13.33
2023-04-13T04:17:06.513Z,14.43
2023-04-13T04:19:35.363Z,13.63
2023-04-13T04:22:06.880Z,14.73
2023-04-13T04:24:39.506Z,13.37
2023-04-13T04:27:08.257Z,12.97
2023-04-13T04:29:37.088Z,13.43
2023-04-13T04:32:29.580Z,13.70
2023-04-13T04:34:58.146Z,13.60
2023-04-13T04:37:28.094Z,13.53
2023-04-13T04:40:07.913Z,12.00
2023-04-13T04:42:37.337Z,13.20
2023-04-13T04:45:10.734Z,12.80
2023-04-13T04:47:45.283Z,13.20
2023-04-13T04:50:21.260Z,13.47
2023-04-13T04:52:57.039Z,13.00
2023-04-13T04:55:26.633Z,14.27
2023-04-13T04:57:55.408Z,12.97
2023-04-13T05:00:26.618Z,13.73
2023-04-13T05:03:07.949Z,12.93
2023-04-13T05:05:39.355Z,12.87
2023-04-13T05:08:12.306Z,13.90
2023-04-13T05:10:49.318Z,12.67
2023-04-13T05:13:19.443Z,14.27
2023-04-13T05:15:57.686Z,14.67
2023-04-13T05:18:27.678Z,14.77
2023-04-13T05:20:57.040Z,14.53
2023-04-13T05:23:26.150Z,13.67
2023-04-13T05:26:03.026Z,13.73
2023-04-13T05:28:31.799Z,14.27
2023-04-13T05:31:02.181Z,13.70
2023-04-13T05:33:33.849Z,14.30
2023-04-13T05:36:02.266Z,14.57
2023-04-13T05:38:31.052Z,14.33
2023-04-13T05:40:59.708Z,15.40
2023-04-13T05:43:28.716Z,14.00
2023-04-13T05:45:57.439Z,14.57
2023-04-13T05:48:26.557Z,13.93
2023-04-13T05:51:00.172Z,14.60
2023-04-13T05:53:32.549Z,13.93
2023-04-13T05:56:00.991Z,13.57
2023-04-13T05:58:29.928Z,14.63
2023-04-13T06:01:16.759Z,15.07
2023-04-13T06:03:46.326Z,14.90
2023-04-13T06:06:17.480Z,15.90
2023-04-13T06:08:46.196Z,14.90
2023-04-13T06:11:15.500Z,16.63
2023-04-13T06:13:44.709Z,16.17
2023-04-13T06:16:13.257Z,15.90
2023-04-13T06:18:41.839Z,15.23
2023-04-13T06:21:10.197Z,14.87
2023-04-13T06:23:40.125Z,12.70
2023-04-13T06:26:18.248Z,12.27
2023-04-13T06:28:52.383Z,11.93
2023-04-13T06:31:21.132Z,10.57
2023-04-13T06:33:51.627Z,11.13
2023-04-13T06:36:25.635Z,12.43
2023-04-13T06:38:58.054Z,12.50
2023-04-13T06:41:28.152Z,12.43
2023-04-13T06:44:13.138Z,13.10
2023-04-13T06:46:53.088Z,13.67
2023-04-13T06:49:23.266Z,11.93
2023-04-13T06:51:52.721Z,12.10
2023-04-13T06:54:22.776Z,12.33
2023-04-13T06:56:58.234Z,11.17
2023-04-13T06:59:27.197Z,13.70
2023-04-13T07:01:56.876Z,13.03
2023-04-13T07:04:28.121Z,12.60
2023-04-13T07:06:57.582Z,12.03
2023-04-13T07:09:27.632Z,13.70
2023-04-13T07:11:55.993Z,13.30
2023-04-13T07:14:24.591Z,11.63
2023-04-13T07:16:52.867Z,13.67
2023-04-13T07:19:23.702Z,12.33
2023-04-13T07:21:52.436Z,13.60
2023-04-13T07:24:21.379Z,13.23
2023-04-13T07:26:51.091Z,12.87
2023-04-13T07:29:19.999Z,11.47
2023-04-13T07:31:59.422Z,12.43
2023-04-13T07:34:28.830Z,13.07
2023-04-13T07:36:57.344Z,13.03
2023-04-13T07:39:27.856Z,13.50
2023-04-13T07:41:58.110Z,12.70
2023-04-13T07:44:39.140Z,13.20
2023-04-13T07:47:08.923Z,12.40
2023-04-13T07:49:38.587Z,11.90
2023-04-13T07:52:10.712Z,12.23
2023-04-13T07:54:40.991Z,11.50
2023-04-13T07:57:12.961Z,12.70
2023-04-13T07:59:47.616Z,12.87
2023-04-13T08:02:17.953Z,13.57
2023-04-13T08:04:50.323Z,12.10
2023-04-13T08:07:23.876Z,11.60
2023-04-13T08:09:53.582Z,11.10
2023-04-13T08:12:23.958Z,11.50
2023-04-13T08:14:54.729Z,12.97
2023-04-13T08:17:23.250Z,12.20
2023-04-13T08:19:52.523Z,9.87
2023-04-13T08:22:21.461Z,11.25
2023-04-13T08:24:50.244Z,10.07
2023-04-13T08:27:19.712Z,10.60
2023-04-13T08:29:56.634Z,10.23
2023-04-13T08:32:25.200Z,9.18
2023-04-13T08:34:54.718Z,8.95
2023-04-13T08:37:24.610Z,8.90
2023-04-13T08:39:59.565Z,11.13
2023-04-13T08:42:29.357Z,10.10
2023-04-13T08:45:00.527Z,10.83
2023-04-13T08:47:29.879Z,10.40
2023-04-13T08:50:00.613Z,11.32
2023-04-13T08:52:41.485Z,10.93
2023-04-13T08:55:11.537Z,10.45
2023-04-13T08:57:41.048Z,9.95
2023-04-13T09:00:16.168Z,9.73
2023-04-13T09:03:00.241Z,8.32
2023-04-13T09:05:34.078Z,9.13
2023-04-13T09:08:07.915Z,8.68
2023-04-13T09:10:38.577Z,9.48
2023-04-13T09:13:06.979Z,6.95
2023-04-13T09:15:37.242Z,9.20
2023-04-13T09:18:19.236Z,8.90
2023-04-13T09:21:03.223Z,8.20
2023-04-13T09:23:31.683Z,8.55
2023-04-13T09:26:08.032Z,8.55
2023-04-13T09:28:46.734Z,10.05
2023-04-13T09:31:17.385Z,10.10
2023-04-13T09:33:46.934Z,8.88
2023-04-13T09:36:17.007Z,9.07
2023-04-13T09:38:46.648Z,7.60
2023-04-13T09:41:15.793Z,7.63
2023-04-13T09:43:44.076Z,7.38
2023-04-13T09:46:17.148Z,7.53
2023-04-13T09:48:45.787Z,8.00
2023-04-13T09:51:14.525Z,7.45
2023-04-13T09:53:45.698Z,6.47
2023-04-13T09:56:14.568Z,6.80
2023-04-13T09:58:44.831Z,7.30
2023-04-13T10:01:15.190Z,6.55
2023-04-13T10:03:45.385Z,7.07
2023-04-13T10:06:14.363Z,8.73
2023-04-13T10:08:42.747Z,7.68
2023-04-13T10:11:14.591Z,7.82
2023-04-13T10:13:49.215Z,7.90
2023-04-13T10:16:41.110Z,7.63
2023-04-13T10:19:13.905Z,7.00
2023-04-13T10:21:47.525Z,8.05
2023-04-13T10:24:17.217Z,7.25
2023-04-13T10:26:46.695Z,5.57
2023-04-13T10:29:16.526Z,7.03
2023-04-13T10:31:47.718Z,9.98
2023-04-13T10:34:27.175Z,7.60
2023-04-13T10:36:58.392Z,7.35
2023-04-13T10:39:28.007Z,8.00
2023-04-13T10:42:01.299Z,7.28
2023-04-13T10:44:30.596Z,7.07
2023-04-13T10:47:05.619Z,7.57
2023-04-13T10:49:36.552Z,5.78
2023-04-13T10:52:05.201Z,5.40
2023-04-13T10:54:35.304Z,4.45
2023-04-13T10:57:06.540Z,5.30
2023-04-13T10:59:55.533Z,5.28
2023-04-13T11:02:28.153Z,5.72
2023-04-13T11:04:58.328Z,5.13
2023-04-13T11:07:27.099Z,4.70
2023-04-13T11:10:02.788Z,6.35
2023-04-13T11:12:32.161Z,5.90
2023-04-13T11:15:00.948Z,3.97
2023-04-13T11:17:29.629Z,4.40
2023-04-13T11:20:01.536Z,4.90
2023-04-13T11:22:37.098Z,4.78
2023-04-13T11:25:09.529Z,4.65
2023-04-13T11:27:38.594Z,4.32
2023-04-13T11:30:11.077Z,3.60
2023-04-13T11:32:43.356Z,4.93
2023-04-13T11:35:14.902Z,5.65
2023-04-13T11:37:45.723Z,5.18
2023-04-13T11:40:17.082Z,5.63
2023-04-13T11:42:46.982Z,5.93
2023-04-13T11:45:18.079Z,6.75
2023-04-13T11:47:48.586Z,76.23
2023-04-13T11:50:19.218Z,76.10
2023-04-13T11:52:49.978Z,67.60
2023-04-13T11:55:23.883Z,65.93
2023-04-13T11:57:54.521Z,67.37
2023-04-13T12:00:26.138Z,66.13
2023-04-13T12:05:32.503Z,66.97
2023-04-13T12:08:04.378Z,66.23
2023-04-13T12:13:20.137Z,71.23
2023-04-13T12:16:06.058Z,68.43
2023-04-13T12:18:44.389Z,70.17
2023-04-13T12:21:17.071Z,67.63
2023-04-13T12:23:54.230Z,69.80
2023-04-13T12:28:58.140Z,71.70
2023-04-13T12:31:33.298Z,67.63
2023-04-13T12:34:02.054Z,70.37
2023-04-13T12:36:34.100Z,68.83
2023-04-13T12:39:03.298Z,67.67
2023-04-13T12:41:32.889Z,66.20
2023-04-13T12:44:01.568Z,70.93
2023-04-13T12:46:30.210Z,71.27
2023-04-13T12:48:59.072Z,71.27
2023-04-13T12:51:27.393Z,69.70
2023-04-13T12:53:57.584Z,68.80
2023-04-13T12:56:26.490Z,71.20
2023-04-13T12:58:55.075Z,70.17
2023-04-13T13:01:23.457Z,69.43
2023-04-13T13:03:52.214Z,69.57
2023-04-13T13:06:20.670Z,72.30
2023-04-13T13:08:49.381Z,76.63
2023-04-13T13:11:19.180Z,79.90
2023-04-13T13:13:47.713Z,78.93
2023-04-13T13:16:16.802Z,70.70
2023-04-13T13:18:50.899Z,72.27
2023-04-13T13:21:29.271Z,68.10
2023-04-13T13:23:57.902Z,75.00
2023-04-13T13:26:33.123Z,73.10
2023-04-13T13:29:15.134Z,73.97
2023-04-13T13:31:43.434Z,72.10
2023-04-13T13:34:12.107Z,72.50
2023-04-13T13:36:40.357Z,72.80
2023-04-13T13:39:08.831Z,71.90
2023-04-13T13:41:38.446Z,73.70
2023-04-13T13:44:07.382Z,72.67
2023-04-13T13:46:36.555Z,74.60
2023-04-13T13:49:06.965Z,74.23
2023-04-13T13:51:41.322Z,73.63
2023-04-13T13:54:12.678Z,76.00
2023-04-13T13:56:42.339Z,71.70
2023-04-13T13:59:10.787Z,70.73
2023-04-13T14:01:39.087Z,73.60
2023-04-13T14:04:07.972Z,73.00
2023-04-13T14:06:36.390Z,74.53
2023-04-13T14:09:06.541Z,72.03
2023-04-13T14:11:36.165Z,74.63
2023-04-13T14:14:18.299Z,74.43
2023-04-13T14:16:49.351Z,73.50
2023-04-13T14:19:20.630Z,72.83
2023-04-13T14:21:50.369Z,74.80
2023-04-13T14:24:18.916Z,72.07
2023-04-13T14:26:47.129Z,71.67
2023-04-13T14:29:17.375Z,76.57
2023-04-13T14:31:45.832Z,74.00
2023-04-13T14:34:14.453Z,70.47
2023-04-13T14:36:44.702Z,73.77
2023-04-13T14:39:13.241Z,70.00
2023-04-13T14:41:41.592Z,68.63
2023-04-13T14:44:10.314Z,69.60
2023-04-13T14:46:40.571Z,71.87
2023-04-13T14:49:09.721Z,68.30
2023-04-13T14:51:38.225Z,68.77
2023-04-13T14:54:06.810Z,69.63
2023-04-13T14:56:35.198Z,70.43
2023-04-13T14:59:04.022Z,69.07
2023-04-13T15:01:32.359Z,72.00
2023-04-13T15:04:02.710Z,72.37
2023-04-13T15:06:31.305Z,69.17
2023-04-13T15:09:00.568Z,72.33
2023-04-13T15:11:30.026Z,72.50
2023-04-13T15:13:58.620Z,70.33
2023-04-13T15:16:26.941Z,68.40
2023-04-13T15:18:55.423Z,70.53
2023-04-13T15:21:25.246Z,66.53
2023-04-13T15:23:53.777Z,69.07
2023-04-13T15:26:23.845Z,67.57
2023-04-13T15:28:52.392Z,66.83
2023-04-13T15:31:22.989Z,71.13
2023-04-13T15:33:51.913Z,68.27
2023-04-13T15:36:20.076Z,69.13
2023-04-13T15:38:50.305Z,66.30
2023-04-13T15:41:19.940Z,68.50
2023-04-13T15:43:48.532Z,68.30
2023-04-13T15:46:17.622Z,67.87
2023-04-13T15:48:47.287Z,65.93
2023-04-13T15:51:16.038Z,67.57
2023-04-13T15:53:44.503Z,68.73
2023-04-13T15:56:14.117Z,68.87
2023-04-13T15:58:42.690Z,65.73
2023-04-13T16:01:13.021Z,68.73
2023-04-13T16:03:41.831Z,68.73
2023-04-13T16:06:11.313Z,67.70
2023-04-13T16:08:40.093Z,65.70
2023-04-13T16:11:08.347Z,65.63
2023-04-13T16:16:14.399Z,69.20
2023-04-13T16:18:43.149Z,68.73
2023-04-13T16:21:12.465Z,68.13
2023-04-13T16:23:41.131Z,69.40
2023-04-13T16:26:09.317Z,68.40
2023-04-13T16:28:39.288Z,67.87
2023-04-13T16:31:11.118Z,69.03
2023-04-13T16:33:39.734Z,70.53
2023-04-13T16:36:08.787Z,68.50
2023-04-13T16:38:37.247Z,69.87
2023-04-13T16:41:05.482Z,69.90
2023-04-13T16:43:34.108Z,67.40
2023-04-13T16:46:03.804Z,65.67
2023-04-13T16:48:32.497Z,69.40
2023-04-13T16:51:00.772Z,65.67
2023-04-13T16:53:29.641Z,66.90
2023-04-13T16:55:58.003Z,66.53
2023-04-13T16:58:26.950Z,66.87
2023-04-13T17:00:55.283Z,65.67
2023-04-13T17:03:25.325Z,65.77
2023-04-13T17:05:53.629Z,65.67
2023-04-13T17:08:22.334Z,66.60
2023-04-13T17:10:51.065Z,73.90
2023-04-13T17:13:19.920Z,67.00
2023-04-13T17:15:48.281Z,67.93
2023-04-13T17:18:17.505Z,67.23
2023-04-13T17:20:54.785Z,69.93
2023-04-13T17:23:23.706Z,68.40
2023-04-13T17:25:53.723Z,71.50
2023-04-13T17:28:24.504Z,73.20
2023-04-13T17:30:52.821Z,71.63
2023-04-13T17:33:21.284Z,72.50
2023-04-13T17:35:53.920Z,74.67
2023-04-13T17:38:22.543Z,73.63
2023-04-13T17:40:50.986Z,73.60
2023-04-13T17:43:19.626Z,74.23
2023-04-13T17:45:47.931Z,75.97
2023-04-13T17:48:16.589Z,74.43
2023-04-13T17:50:44.772Z,78.57
2023-04-13T17:53:14.827Z,73.43
2023-04-13T17:55:43.198Z,75.73
2023-04-13T17:58:12.135Z,71.93
2023-04-13T18:00:40.453Z,77.27
2023-04-13T18:03:09.390Z,78.40
2023-04-13T18:05:37.921Z,77.30
2023-04-13T18:08:06.865Z,77.73
2023-04-13T18:10:36.599Z,77.73
2023-04-13T18:13:05.311Z,76.13
2023-04-13T18:15:33.757Z,77.90
2023-04-13T18:18:02.616Z,78.83
2023-04-13T18:20:31.202Z,80.73
2023-04-13T18:22:59.827Z,80.63
2023-04-13T18:25:28.081Z,80.20
2023-04-13T18:27:58.446Z,78.17
2023-04-13T18:30:27.299Z,79.83
2023-04-13T18:32:56.031Z,83.37
2023-04-13T18:35:24.396Z,83.53
2023-04-13T18:37:52.983Z,80.10
2023-04-13T18:40:21.459Z,79.53
2023-04-13T18:42:50.545Z,81.60
2023-04-13T18:45:20.820Z,83.60
2023-04-13T18:47:49.571Z,79.53
2023-04-13T18:50:17.972Z,78.93
2023-04-13T18:52:46.601Z,81.50
2023-04-13T18:55:15.354Z,83.73
2023-04-13T18:57:44.031Z,76.30
2023-04-13T19:00:13.494Z,84.77
2023-04-13T19:02:46.289Z,81.27
2023-04-13T19:05:15.353Z,83.10
2023-04-13T19:07:45.772Z,82.73
2023-04-13T19:10:14.113Z,81.43
2023-04-13T19:12:42.747Z,83.73
2023-04-13T19:15:11.881Z,83.33
2023-04-13T19:17:41.851Z,83.30
2023-04-13T19:20:13.257Z,81.43
2023-04-13T19:22:41.952Z,82.33
2023-04-13T19:25:14.641Z,86.67
2023-04-13T19:27:44.635Z,84.80
2023-04-13T19:30:14.277Z,92.03
2023-04-13T19:32:43.980Z,86.80
2023-04-13T19:35:14.566Z,87.00
2023-04-13T19:37:43.162Z,87.23
2023-04-13T19:40:13.765Z,90.07
2023-04-13T19:42:44.402Z,83.07
2023-04-13T19:45:14.141Z,81.73
2023-04-13T19:47:43.242Z,80.60
2023-04-13T19:50:15.313Z,79.97
2023-04-13T19:52:47.222Z,81.30
2023-04-13T19:55:15.561Z,79.07
2023-04-13T19:57:44.381Z,81.00
2023-04-13T20:00:22.359Z,85.43
2023-04-13T20:02:53.063Z,82.90
2023-04-13T20:05:23.016Z,84.43
2023-04-13T20:07:51.580Z,73.63
2023-04-13T20:10:19.882Z,75.10
2023-04-13T20:12:48.748Z,72.63
2023-04-13T20:15:17.229Z,72.63
2023-04-13T20:17:47.856Z,74.33
2023-04-13T20:20:16.935Z,73.07
2023-04-13T20:22:46.834Z,70.90
2023-04-13T20:25:15.186Z,72.23
2023-04-13T20:27:44.010Z,70.30
2023-04-13T20:30:13.130Z,71.93
2023-04-13T20:32:41.812Z,77.27
2023-04-13T20:35:11.072Z,77.97
2023-04-13T20:37:39.677Z,75.43
2023-04-13T20:40:11.583Z,77.20
2023-04-13T20:42:41.901Z,72.33
2023-04-13T20:45:12.669Z,74.00
2023-04-13T20:47:42.523Z,77.07
2023-04-13T20:50:12.972Z,74.77
2023-04-13T20:52:42.600Z,77.43
2023-04-13T20:55:12.632Z,77.43
2023-04-13T20:57:41.990Z,78.53
2023-04-13T21:00:15.454Z,77.00
2023-04-13T21:02:45.029Z,78.97
2023-04-13T21:05:13.802Z,81.23
2023-04-13T21:07:42.563Z,79.60
2023-04-13T21:10:12.745Z,77.30
2023-04-13T21:12:41.434Z,80.50
2023-04-13T21:15:10.613Z,74.57
2023-04-13T21:17:39.337Z,74.53
2023-04-13T21:20:09.677Z,73.83
2023-04-13T21:22:38.354Z,76.07
2023-04-13T21:25:07.423Z,75.27
2023-04-13T21:27:37.301Z,73.20
2023-04-13T21:30:06.865Z,78.40
2023-04-13T21:32:35.545Z,78.33
2023-04-13T21:35:03.858Z,75.37
2023-04-13T21:37:32.938Z,75.70
2023-04-13T21:40:01.175Z,75.53
2023-04-13T21:42:29.705Z,75.23
2023-04-13T21:44:59.623Z,77.37
2023-04-13T21:47:28.346Z,78.57
2023-04-13T21:49:56.578Z,77.53
2023-04-13T21:52:25.194Z,77.03
2023-04-13T21:54:55.880Z,75.07
2023-04-13T21:57:24.524Z,75.77
2023-04-13T21:59:54.129Z,76.40
2023-04-13T22:02:24.830Z,75.97
2023-04-13T22:04:53.389Z,76.17
2023-04-13T22:07:28.643Z,75.63
2023-04-13T22:10:08.700Z,75.27
2023-04-13T22:12:37.503Z,75.47
2023-04-13T22:15:06.909Z,75.03
2023-04-13T22:17:37.246Z,73.93
2023-04-13T22:20:06.487Z,74.20
2023-04-13T22:22:35.362Z,74.20
2023-04-13T22:25:03.654Z,75.10
2023-04-13T22:27:32.419Z,72.07
2023-04-13T22:30:00.808Z,73.83
2023-04-13T22:32:29.278Z,70.77
2023-04-13T22:34:59.541Z,71.47
2023-04-13T22:37:32.882Z,72.63
2023-04-13T22:40:01.717Z,71.37
2023-04-13T22:42:30.603Z,71.80
2023-04-13T22:44:58.960Z,72.80
2023-04-13T22:47:27.506Z,70.60
2023-04-13T22:49:55.856Z,72.90
2023-04-13T22:52:25.992Z,70.70
2023-04-13T22:54:54.310Z,71.20
2023-04-13T22:57:23.308Z,71.53
2023-04-13T22:59:51.632Z,72.73
2023-04-13T23:02:20.779Z,71.40
2023-04-13T23:04:49.541Z,72.03
2023-04-13T23:07:18.285Z,72.40
2023-04-13T23:09:47.934Z,73.40
2023-04-13T23:12:16.566Z,72.93
2023-04-13T23:14:44.711Z,71.80
2023-04-13T23:17:13.220Z,72.03
2023-04-13T23:19:41.462Z,72.13
2023-04-13T23:22:10.284Z,72.63
2023-04-13T23:24:38.998Z,73.60
2023-04-13T23:27:08.784Z,72.20
2023-04-13T23:29:37.433Z,71.67
2023-04-13T23:32:06.728Z,72.53
2023-04-13T23:34:35.271Z,71.17
2023-04-13T23:37:03.912Z,71.43
2023-04-13T23:39:33.527Z,72.80
2023-04-13T23:42:02.141Z,71.50
2023-04-13T23:44:31.713Z,73.23
2023-04-13T23:47:01.074Z,71.37
2023-04-13T23:49:29.392Z,72.77
2023-04-13T23:51:57.988Z,73.63
2023-04-13T23:54:26.323Z,72.97
2023-04-13T23:56:54.833Z,71.63
2023-04-13T23:59:23.051Z,72.87
